sensor_id;sensor_type;location;lat;lon;timestamp;temperature;humidity
71839;SHT31;59687;37.520;15.068;2022-09-13T00:00:51;24.21;67.13
71839;SHT31;59687;37.520;15.068;2022-09-13T00:03:19;24.11;67.34
71839;SHT31;59687;37.520;15.068;2022-09-13T00:05:47;24.11;67.40
71839;SHT31;59687;37.520;15.068;2022-09-13T00:08:14;24.16;67.21
71839;SHT31;59687;37.520;15.068;2022-09-13T00:10:42;24.10;67.35
71839;SHT31;59687;37.520;15.068;2022-09-13T00:13:13;24.06;67.70
71839;SHT31;59687;37.520;15.068;2022-09-13T00:15:46;24.03;67.96
71839;SHT31;59687;37.520;15.068;2022-09-13T00:18:14;23.97;67.97
71839;SHT31;59687;37.520;15.068;2022-09-13T00:20:41;23.99;68.01
71839;SHT31;59687;37.520;15.068;2022-09-13T00:23:09;23.92;68.04
71839;SHT31;59687;37.520;15.068;2022-09-13T00:25:36;23.93;68.28
71839;SHT31;59687;37.520;15.068;2022-09-13T00:28:04;23.96;68.04
71839;SHT31;59687;37.520;15.068;2022-09-13T00:30:31;23.96;68.15
71839;SHT31;59687;37.520;15.068;2022-09-13T00:32:58;23.92;68.44
71839;SHT31;59687;37.520;15.068;2022-09-13T00:35:25;24.01;68.06
71839;SHT31;59687;37.520;15.068;2022-09-13T00:37:52;23.94;68.09
71839;SHT31;59687;37.520;15.068;2022-09-13T00:40:19;23.87;68.44
71839;SHT31;59687;37.520;15.068;2022-09-13T00:42:47;23.86;68.62
71839;SHT31;59687;37.520;15.068;2022-09-13T00:45:16;23.87;68.39
71839;SHT31;59687;37.520;15.068;2022-09-13T00:48:03;23.80;68.60
71839;SHT31;59687;37.520;15.068;2022-09-13T00:50:34;23.84;68.45
71839;SHT31;59687;37.520;15.068;2022-09-13T00:53:12;23.83;68.61
71839;SHT31;59687;37.520;15.068;2022-09-13T00:58:20;23.86;68.52
71839;SHT31;59687;37.520;15.068;2022-09-13T01:00:51;23.80;68.62
71839;SHT31;59687;37.520;15.068;2022-09-13T01:03:20;23.92;68.50
71839;SHT31;59687;37.520;15.068;2022-09-13T01:05:52;23.84;68.61
71839;SHT31;59687;37.520;15.068;2022-09-13T01:08:20;23.76;68.61
71839;SHT31;59687;37.520;15.068;2022-09-13T01:10:52;23.65;68.92
71839;SHT31;59687;37.520;15.068;2022-09-13T01:13:24;23.56;69.30
71839;SHT31;59687;37.520;15.068;2022-09-13T01:15:51;23.47;69.48
71839;SHT31;59687;37.520;15.068;2022-09-13T01:18:19;23.38;69.74
71839;SHT31;59687;37.520;15.068;2022-09-13T01:34:57;23.21;70.21
71839;SHT31;59687;37.520;15.068;2022-09-13T01:51:37;23.44;68.85
71839;SHT31;59687;37.520;15.068;2022-09-13T01:57:09;23.15;69.41
71839;SHT31;59687;37.520;15.068;2022-09-13T01:59:49;23.07;69.65
71839;SHT31;59687;37.520;15.068;2022-09-13T02:02:44;23.00;69.75
71839;SHT31;59687;37.520;15.068;2022-09-13T02:05:32;22.96;69.94
71839;SHT31;59687;37.520;15.068;2022-09-13T02:08:08;22.89;70.06
71839;SHT31;59687;37.520;15.068;2022-09-13T02:10:45;22.86;70.08
71839;SHT31;59687;37.520;15.068;2022-09-13T02:13:16;22.83;70.19
71839;SHT31;59687;37.520;15.068;2022-09-13T02:15:46;23.07;69.33
71839;SHT31;59687;37.520;15.068;2022-09-13T02:18:19;23.34;68.31
71839;SHT31;59687;37.520;15.068;2022-09-13T02:20:49;23.18;68.53
71839;SHT31;59687;37.520;15.068;2022-09-13T02:23:25;23.07;68.94
71839;SHT31;59687;37.520;15.068;2022-09-13T02:25:58;22.99;69.29
71839;SHT31;59687;37.520;15.068;2022-09-13T02:28:36;22.92;69.56
71839;SHT31;59687;37.520;15.068;2022-09-13T02:31:07;22.86;69.77
71839;SHT31;59687;37.520;15.068;2022-09-13T02:33:38;22.77;69.88
71839;SHT31;59687;37.520;15.068;2022-09-13T02:36:14;22.76;70.03
71839;SHT31;59687;37.520;15.068;2022-09-13T02:38:49;22.70;70.06
71839;SHT31;59687;37.520;15.068;2022-09-13T02:41:18;23.15;68.51
71839;SHT31;59687;37.520;15.068;2022-09-13T02:43:54;23.41;67.64
71839;SHT31;59687;37.520;15.068;2022-09-13T02:49:17;23.00;68.51
71839;SHT31;59687;37.520;15.068;2022-09-13T02:52:08;22.85;68.89
71839;SHT31;59687;37.520;15.068;2022-09-13T03:00:06;22.62;69.18
71839;SHT31;59687;37.520;15.068;2022-09-13T03:02:36;22.55;69.20
71839;SHT31;59687;37.520;15.068;2022-09-13T03:05:03;22.48;69.13
71839;SHT31;59687;37.520;15.068;2022-09-13T03:07:31;22.47;69.07
71839;SHT31;59687;37.520;15.068;2022-09-13T03:10:07;22.58;68.40
71839;SHT31;59687;37.520;15.068;2022-09-13T03:13:02;22.62;67.94
71839;SHT31;59687;37.520;15.068;2022-09-13T03:23:58;22.48;68.26
71839;SHT31;59687;37.520;15.068;2022-09-13T03:26:59;22.56;67.94
71839;SHT31;59687;37.520;15.068;2022-09-13T03:29:39;22.49;68.16
71839;SHT31;59687;37.520;15.068;2022-09-13T03:32:35;22.49;68.38
71839;SHT31;59687;37.520;15.068;2022-09-13T03:35:25;22.41;68.89
71839;SHT31;59687;37.520;15.068;2022-09-13T03:38:14;22.40;68.82
71839;SHT31;59687;37.520;15.068;2022-09-13T03:40:52;22.49;68.25
71839;SHT31;59687;37.520;15.068;2022-09-13T03:43:35;22.56;66.97
71839;SHT31;59687;37.520;15.068;2022-09-13T03:46:07;22.49;67.16
71839;SHT31;59687;37.520;15.068;2022-09-13T03:48:37;22.47;67.32
71839;SHT31;59687;37.520;15.068;2022-09-13T03:51:06;22.52;67.35
71839;SHT31;59687;37.520;15.068;2022-09-13T03:53:38;22.69;67.10
71839;SHT31;59687;37.520;15.068;2022-09-13T03:56:17;22.68;67.52
71839;SHT31;59687;37.520;15.068;2022-09-13T03:58:46;22.63;67.44
71839;SHT31;59687;37.520;15.068;2022-09-13T04:01:17;22.55;67.75
71839;SHT31;59687;37.520;15.068;2022-09-13T04:03:45;22.47;68.00
71839;SHT31;59687;37.520;15.068;2022-09-13T04:06:12;22.41;68.12
71839;SHT31;59687;37.520;15.068;2022-09-13T04:08:39;22.31;68.36
71839;SHT31;59687;37.520;15.068;2022-09-13T04:11:06;22.30;68.71
71839;SHT31;59687;37.520;15.068;2022-09-13T04:13:33;22.24;68.78
71839;SHT31;59687;37.520;15.068;2022-09-13T04:16:02;22.24;68.67
71839;SHT31;59687;37.520;15.068;2022-09-13T04:18:29;22.65;66.82
71839;SHT31;59687;37.520;15.068;2022-09-13T04:20:58;22.61;66.82
71839;SHT31;59687;37.520;15.068;2022-09-13T04:23:27;22.44;67.30
71839;SHT31;59687;37.520;15.068;2022-09-13T04:25:54;22.31;67.83
71839;SHT31;59687;37.520;15.068;2022-09-13T04:28:27;22.22;68.32
71839;SHT31;59687;37.520;15.068;2022-09-13T04:30:53;22.16;68.45
71839;SHT31;59687;37.520;15.068;2022-09-13T04:33:20;22.11;68.68
71839;SHT31;59687;37.520;15.068;2022-09-13T04:35:47;22.06;68.70
71839;SHT31;59687;37.520;15.068;2022-09-13T04:38:15;22.00;68.90
71839;SHT31;59687;37.520;15.068;2022-09-13T04:40:42;21.97;69.11
71839;SHT31;59687;37.520;15.068;2022-09-13T04:43:09;22.11;68.90
71839;SHT31;59687;37.520;15.068;2022-09-13T04:45:37;22.45;67.80
71839;SHT31;59687;37.520;15.068;2022-09-13T04:48:03;22.44;67.72
71839;SHT31;59687;37.520;15.068;2022-09-13T04:50:30;22.38;68.23
71839;SHT31;59687;37.520;15.068;2022-09-13T04:52:57;22.33;68.39
71839;SHT31;59687;37.520;15.068;2022-09-13T04:55:25;22.35;68.68
71839;SHT31;59687;37.520;15.068;2022-09-13T04:57:52;22.43;68.54
71839;SHT31;59687;37.520;15.068;2022-09-13T05:00:20;22.54;68.31
71839;SHT31;59687;37.520;15.068;2022-09-13T05:02:47;22.73;67.48
71839;SHT31;59687;37.520;15.068;2022-09-13T05:05:14;22.97;66.71
71839;SHT31;59687;37.520;15.068;2022-09-13T05:07:41;23.32;66.20
71839;SHT31;59687;37.520;15.068;2022-09-13T05:10:08;23.65;64.55
71839;SHT31;59687;37.520;15.068;2022-09-13T05:12:35;23.96;62.85
71839;SHT31;59687;37.520;15.068;2022-09-13T05:15:02;24.28;61.88
71839;SHT31;59687;37.520;15.068;2022-09-13T05:17:29;24.48;61.62
71839;SHT31;59687;37.520;15.068;2022-09-13T05:19:56;24.82;60.33
71839;SHT31;59687;37.520;15.068;2022-09-13T05:22:22;25.20;59.30
71839;SHT31;59687;37.520;15.068;2022-09-13T05:24:49;25.69;58.65
71839;SHT31;59687;37.520;15.068;2022-09-13T05:27:16;26.01;56.86
71839;SHT31;59687;37.520;15.068;2022-09-13T05:29:43;26.45;56.06
71839;SHT31;59687;37.520;15.068;2022-09-13T05:32:10;26.86;54.62
71839;SHT31;59687;37.520;15.068;2022-09-13T05:34:37;27.25;53.37
71839;SHT31;59687;37.520;15.068;2022-09-13T05:37:04;27.67;52.54
71839;SHT31;59687;37.520;15.068;2022-09-13T05:39:31;27.96;51.34
71839;SHT31;59687;37.520;15.068;2022-09-13T05:42:05;28.03;51.24
71839;SHT31;59687;37.520;15.068;2022-09-13T05:44:32;28.08;50.67
71839;SHT31;59687;37.520;15.068;2022-09-13T05:47:00;28.42;50.27
71839;SHT31;59687;37.520;15.068;2022-09-13T05:49:27;28.97;48.95
71839;SHT31;59687;37.520;15.068;2022-09-13T05:51:54;29.49;47.65
71839;SHT31;59687;37.520;15.068;2022-09-13T05:54:20;29.93;46.41
71839;SHT31;59687;37.520;15.068;2022-09-13T05:56:47;30.35;45.74
71839;SHT31;59687;37.520;15.068;2022-09-13T05:59:14;30.74;45.13
71839;SHT31;59687;37.520;15.068;2022-09-13T06:01:45;31.14;44.69
71839;SHT31;59687;37.520;15.068;2022-09-13T06:04:14;31.53;44.47
71839;SHT31;59687;37.520;15.068;2022-09-13T06:06:40;31.65;43.94
71839;SHT31;59687;37.520;15.068;2022-09-13T06:09:09;31.49;44.44
71839;SHT31;59687;37.520;15.068;2022-09-13T06:11:37;31.49;45.02
71839;SHT31;59687;37.520;15.068;2022-09-13T06:14:04;31.77;44.92
71839;SHT31;59687;37.520;15.068;2022-09-13T06:16:31;32.43;43.91
71839;SHT31;59687;37.520;15.068;2022-09-13T06:18:59;32.91;43.44
71839;SHT31;59687;37.520;15.068;2022-09-13T06:21:26;33.46;42.15
71839;SHT31;59687;37.520;15.068;2022-09-13T06:23:55;33.24;41.86
71839;SHT31;59687;37.520;15.068;2022-09-13T06:26:24;32.81;42.43
71839;SHT31;59687;37.520;15.068;2022-09-13T06:28:53;31.83;44.45
71839;SHT31;59687;37.520;15.068;2022-09-13T06:31:23;31.08;46.28
71839;SHT31;59687;37.520;15.068;2022-09-13T06:33:59;30.32;47.99
71839;SHT31;59687;37.520;15.068;2022-09-13T06:36:28;30.19;48.39
71839;SHT31;59687;37.520;15.068;2022-09-13T06:38:55;29.88;49.29
71839;SHT31;59687;37.520;15.068;2022-09-13T06:41:23;29.94;49.03
71839;SHT31;59687;37.520;15.068;2022-09-13T06:43:58;30.28;48.65
71839;SHT31;59687;37.520;15.068;2022-09-13T06:46:27;30.18;48.67
71839;SHT31;59687;37.520;15.068;2022-09-13T06:48:58;29.98;49.29
71839;SHT31;59687;37.520;15.068;2022-09-13T06:51:25;30.35;48.75
71839;SHT31;59687;37.520;15.068;2022-09-13T06:53:52;31.01;47.83
71839;SHT31;59687;37.520;15.068;2022-09-13T06:56:25;31.52;45.95
71839;SHT31;59687;37.520;15.068;2022-09-13T06:58:56;31.25;45.82
71839;SHT31;59687;37.520;15.068;2022-09-13T07:01:32;31.01;46.14
71839;SHT31;59687;37.520;15.068;2022-09-13T07:04:03;30.66;46.23
71839;SHT31;59687;37.520;15.068;2022-09-13T07:06:35;30.15;47.66
71839;SHT31;59687;37.520;15.068;2022-09-13T07:09:05;30.40;46.87
71839;SHT31;59687;37.520;15.068;2022-09-13T07:11:35;30.80;46.37
71839;SHT31;59687;37.520;15.068;2022-09-13T07:14:03;31.83;45.26
71839;SHT31;59687;37.520;15.068;2022-09-13T07:16:32;32.31;43.57
71839;SHT31;59687;37.520;15.068;2022-09-13T07:19:02;32.66;42.31
71839;SHT31;59687;37.520;15.068;2022-09-13T07:21:34;32.79;42.19
71839;SHT31;59687;37.520;15.068;2022-09-13T07:24:01;32.83;42.55
71839;SHT31;59687;37.520;15.068;2022-09-13T07:26:28;32.42;43.15
71839;SHT31;59687;37.520;15.068;2022-09-13T07:28:59;31.84;43.49
71839;SHT31;59687;37.520;15.068;2022-09-13T07:31:32;31.91;43.41
71839;SHT31;59687;37.520;15.068;2022-09-13T07:34:02;32.14;43.55
71839;SHT31;59687;37.520;15.068;2022-09-13T07:36:31;32.66;42.42
71839;SHT31;59687;37.520;15.068;2022-09-13T07:38:58;32.33;42.97
71839;SHT31;59687;37.520;15.068;2022-09-13T07:41:26;31.93;43.69
71839;SHT31;59687;37.520;15.068;2022-09-13T07:43:54;32.32;43.10
71839;SHT31;59687;37.520;15.068;2022-09-13T07:46:25;32.19;43.83
71839;SHT31;59687;37.520;15.068;2022-09-13T07:48:54;32.15;43.68
71839;SHT31;59687;37.520;15.068;2022-09-13T07:51:24;32.38;43.44
71839;SHT31;59687;37.520;15.068;2022-09-13T07:53:57;32.55;43.14
71839;SHT31;59687;37.520;15.068;2022-09-13T07:56:27;32.45;43.00
71839;SHT31;59687;37.520;15.068;2022-09-13T07:58:54;32.36;43.07
71839;SHT31;59687;37.520;15.068;2022-09-13T08:01:24;32.69;42.54
71839;SHT31;59687;37.520;15.068;2022-09-13T08:03:59;32.84;42.06
71839;SHT31;59687;37.520;15.068;2022-09-13T08:06:30;31.87;43.67
71839;SHT31;59687;37.520;15.068;2022-09-13T08:08:57;32.63;42.29
71839;SHT31;59687;37.520;15.068;2022-09-13T08:11:29;32.81;42.63
71839;SHT31;59687;37.520;15.068;2022-09-13T08:14:00;33.21;41.51
71839;SHT31;59687;37.520;15.068;2022-09-13T08:16:28;33.29;40.58
71839;SHT31;59687;37.520;15.068;2022-09-13T08:18:58;33.67;40.37
71839;SHT31;59687;37.520;15.068;2022-09-13T08:21:26;33.94;39.93
71839;SHT31;59687;37.520;15.068;2022-09-13T08:23:57;34.05;39.74
71839;SHT31;59687;37.520;15.068;2022-09-13T08:26:28;33.63;40.07
71839;SHT31;59687;37.520;15.068;2022-09-13T08:29:03;33.32;40.09
71839;SHT31;59687;37.520;15.068;2022-09-13T08:31:30;32.63;41.34
71839;SHT31;59687;37.520;15.068;2022-09-13T08:33:57;32.14;41.79
71839;SHT31;59687;37.520;15.068;2022-09-13T08:36:26;31.95;42.89
71839;SHT31;59687;37.520;15.068;2022-09-13T08:38:58;31.81;42.57
71839;SHT31;59687;37.520;15.068;2022-09-13T08:44:33;31.95;39.70
71839;SHT31;59687;37.520;15.068;2022-09-13T08:49:46;33.52;37.14
71839;SHT31;59687;37.520;15.068;2022-09-13T08:54:41;33.86;37.25
71839;SHT31;59687;37.520;15.068;2022-09-13T09:03:02;33.53;37.17
71839;SHT31;59687;37.520;15.068;2022-09-13T09:05:39;33.70;35.88
71839;SHT31;59687;37.520;15.068;2022-09-13T09:08:14;33.78;33.99
71839;SHT31;59687;37.520;15.068;2022-09-13T09:10:48;33.89;34.56
71839;SHT31;59687;37.520;15.068;2022-09-13T09:13:32;34.44;33.42
71839;SHT31;59687;37.520;15.068;2022-09-13T09:18:48;32.42;36.44
71839;SHT31;59687;37.520;15.068;2022-09-13T09:21:16;31.67;37.06
71839;SHT31;59687;37.520;15.068;2022-09-13T09:23:52;31.32;36.97
71839;SHT31;59687;37.520;15.068;2022-09-13T09:26:22;31.70;35.69
71839;SHT31;59687;37.520;15.068;2022-09-13T09:29:16;32.55;35.18
71839;SHT31;59687;37.520;15.068;2022-09-13T09:35:14;32.88;34.62
71839;SHT31;59687;37.520;15.068;2022-09-13T09:37:45;32.90;34.94
71839;SHT31;59687;37.520;15.068;2022-09-13T09:40:15;33.17;33.50
71839;SHT31;59687;37.520;15.068;2022-09-13T09:42:45;33.28;34.78
71839;SHT31;59687;37.520;15.068;2022-09-13T09:45:31;33.83;33.17
71839;SHT31;59687;37.520;15.068;2022-09-13T09:48:07;34.05;31.64
71839;SHT31;59687;37.520;15.068;2022-09-13T09:50:44;34.42;30.95
71839;SHT31;59687;37.520;15.068;2022-09-13T09:53:24;34.91;29.49
71839;SHT31;59687;37.520;15.068;2022-09-13T09:58:42;37.03;28.38
71839;SHT31;59687;37.520;15.068;2022-09-13T10:01:26;36.73;29.12
71839;SHT31;59687;37.520;15.068;2022-09-13T10:04:04;38.17;27.00
71839;SHT31;59687;37.520;15.068;2022-09-13T10:06:31;37.97;24.60
71839;SHT31;59687;37.520;15.068;2022-09-13T10:09:17;37.49;25.61
71839;SHT31;59687;37.520;15.068;2022-09-13T10:11:55;38.62;25.96
71839;SHT31;59687;37.520;15.068;2022-09-13T10:17:17;38.27;23.54
71839;SHT31;59687;37.520;15.068;2022-09-13T10:20:02;38.27;23.96
71839;SHT31;59687;37.520;15.068;2022-09-13T10:22:31;38.51;23.08
71839;SHT31;59687;37.520;15.068;2022-09-13T10:25:22;39.10;23.11
71839;SHT31;59687;37.520;15.068;2022-09-13T10:27:55;39.38;21.63
71839;SHT31;59687;37.520;15.068;2022-09-13T10:30:37;39.88;21.05
71839;SHT31;59687;37.520;15.068;2022-09-13T10:35:49;40.31;22.48
71839;SHT31;59687;37.520;15.068;2022-09-13T10:40:54;41.38;20.46
71839;SHT31;59687;37.520;15.068;2022-09-13T10:43:23;40.82;22.90
71839;SHT31;59687;37.520;15.068;2022-09-13T10:45:52;40.32;23.40
71839;SHT31;59687;37.520;15.068;2022-09-13T10:48:19;41.33;21.22
71839;SHT31;59687;37.520;15.068;2022-09-13T10:51:08;41.24;20.88
71839;SHT31;59687;37.520;15.068;2022-09-13T10:53:41;40.70;21.85
71839;SHT31;59687;37.520;15.068;2022-09-13T10:56:25;39.97;19.35
71839;SHT31;59687;37.520;15.068;2022-09-13T10:59:26;41.14;20.81
71839;SHT31;59687;37.520;15.068;2022-09-13T11:02:35;41.42;21.53
71839;SHT31;59687;37.520;15.068;2022-09-13T11:08:05;36.57;21.89
71839;SHT31;59687;37.520;15.068;2022-09-13T11:13:55;37.96;21.63
71839;SHT31;59687;37.520;15.068;2022-09-13T11:21:41;40.01;18.29
71839;SHT31;59687;37.520;15.068;2022-09-13T11:27:07;41.64;17.70
71839;SHT31;59687;37.520;15.068;2022-09-13T11:35:21;39.62;18.90
71839;SHT31;59687;37.520;15.068;2022-09-13T11:46:50;39.42;19.42
71839;SHT31;59687;37.520;15.068;2022-09-13T11:49:24;40.13;18.96
71839;SHT31;59687;37.520;15.068;2022-09-13T11:52:10;40.62;19.18
71839;SHT31;59687;37.520;15.068;2022-09-13T11:55:13;40.78;18.79
71839;SHT31;59687;37.520;15.068;2022-09-13T11:57:49;40.92;17.96
71839;SHT31;59687;37.520;15.068;2022-09-13T12:06:01;41.33;17.44
71839;SHT31;59687;37.520;15.068;2022-09-13T12:08:35;41.80;17.23
71839;SHT31;59687;37.520;15.068;2022-09-13T12:11:32;42.08;17.43
71839;SHT31;59687;37.520;15.068;2022-09-13T12:14:04;41.45;17.40
71839;SHT31;59687;37.520;15.068;2022-09-13T12:16:42;41.04;18.01
71839;SHT31;59687;37.520;15.068;2022-09-13T12:19:41;40.74;16.35
71839;SHT31;59687;37.520;15.068;2022-09-13T12:22:15;39.86;17.77
71839;SHT31;59687;37.520;15.068;2022-09-13T12:24:47;39.52;17.97
71839;SHT31;59687;37.520;15.068;2022-09-13T12:27:26;40.40;17.59
71839;SHT31;59687;37.520;15.068;2022-09-13T12:29:59;40.30;17.29
71839;SHT31;59687;37.520;15.068;2022-09-13T12:32:29;39.14;19.11
71839;SHT31;59687;37.520;15.068;2022-09-13T12:35:02;39.37;19.06
71839;SHT31;59687;37.520;15.068;2022-09-13T12:46:31;39.82;20.39
71839;SHT31;59687;37.520;15.068;2022-09-13T12:49:20;39.06;21.24
71839;SHT31;59687;37.520;15.068;2022-09-13T12:57:51;39.09;20.52
71839;SHT31;59687;37.520;15.068;2022-09-13T13:00:25;38.39;19.77
71839;SHT31;59687;37.520;15.068;2022-09-13T13:03:14;38.53;21.18
71839;SHT31;59687;37.520;15.068;2022-09-13T13:10:41;38.79;22.74
71839;SHT31;59687;37.520;15.068;2022-09-13T13:13:19;39.56;20.85
71839;SHT31;59687;37.520;15.068;2022-09-13T13:18:28;37.84;25.01
71839;SHT31;59687;37.520;15.068;2022-09-13T13:29:19;37.03;22.63
71839;SHT31;59687;37.520;15.068;2022-09-13T13:34:47;37.07;24.06
71839;SHT31;59687;37.520;15.068;2022-09-13T13:39:48;37.35;24.82
71839;SHT31;59687;37.520;15.068;2022-09-13T13:42:35;36.70;22.20
71839;SHT31;59687;37.520;15.068;2022-09-13T13:45:15;37.13;21.08
71839;SHT31;59687;37.520;15.068;2022-09-13T13:48:07;37.01;25.56
71839;SHT31;59687;37.520;15.068;2022-09-13T13:53:45;36.86;24.91
71839;SHT31;59687;37.520;15.068;2022-09-13T13:56:23;36.82;27.76
71839;SHT31;59687;37.520;15.068;2022-09-13T13:58:59;36.86;26.37
71839;SHT31;59687;37.520;15.068;2022-09-13T14:01:32;37.11;27.82
71839;SHT31;59687;37.520;15.068;2022-09-13T14:07:03;37.03;24.11
71839;SHT31;59687;37.520;15.068;2022-09-13T14:19:50;34.84;32.35
71839;SHT31;59687;37.520;15.068;2022-09-13T14:27:46;34.12;35.37
71839;SHT31;59687;37.520;15.068;2022-09-13T14:30:30;33.46;35.52
71839;SHT31;59687;37.520;15.068;2022-09-13T14:33:01;32.52;38.02
71839;SHT31;59687;37.520;15.068;2022-09-13T14:35:38;32.11;37.74
71839;SHT31;59687;37.520;15.068;2022-09-13T14:38:21;31.33;40.49
71839;SHT31;59687;37.520;15.068;2022-09-13T14:40:53;30.72;41.05
71839;SHT31;59687;37.520;15.068;2022-09-13T14:43:26;30.08;41.78
71839;SHT31;59687;37.520;15.068;2022-09-13T14:46:04;29.91;42.41
71839;SHT31;59687;37.520;15.068;2022-09-13T14:53:40;28.70;40.99
71839;SHT31;59687;37.520;15.068;2022-09-13T14:57:03;28.39;41.16
71839;SHT31;59687;37.520;15.068;2022-09-13T14:59:12;28.41;42.93
71839;SHT31;59687;37.520;15.068;2022-09-13T15:01:40;28.44;46.08
71839;SHT31;59687;37.520;15.068;2022-09-13T15:04:07;28.42;44.52
71839;SHT31;59687;37.520;15.068;2022-09-13T15:06:37;28.35;47.15
71839;SHT31;59687;37.520;15.068;2022-09-13T15:11:52;28.01;44.70
71839;SHT31;59687;37.520;15.068;2022-09-13T15:17:07;27.82;47.52
71839;SHT31;59687;37.520;15.068;2022-09-13T15:19:49;27.76;49.49
71839;SHT31;59687;37.520;15.068;2022-09-13T15:22:20;27.69;48.26
71839;SHT31;59687;37.520;15.068;2022-09-13T15:24:57;27.70;49.48
71839;SHT31;59687;37.520;15.068;2022-09-13T15:27:30;27.94;49.14
71839;SHT31;59687;37.520;15.068;2022-09-13T15:30:03;27.87;49.44
71839;SHT31;59687;37.520;15.068;2022-09-13T15:32:47;27.70;48.83
71839;SHT31;59687;37.520;15.068;2022-09-13T15:35:26;27.37;47.41
71839;SHT31;59687;37.520;15.068;2022-09-13T15:38:00;27.24;49.25
71839;SHT31;59687;37.520;15.068;2022-09-13T15:40:29;27.22;49.03
71839;SHT31;59687;37.520;15.068;2022-09-13T15:43:06;27.10;48.97
71839;SHT31;59687;37.520;15.068;2022-09-13T15:45:33;26.98;49.32
71839;SHT31;59687;37.520;15.068;2022-09-13T15:48:00;26.87;52.18
71839;SHT31;59687;37.520;15.068;2022-09-13T15:50:29;26.97;50.34
71839;SHT31;59687;37.520;15.068;2022-09-13T15:52:58;27.24;51.67
71839;SHT31;59687;37.520;15.068;2022-09-13T15:55:27;26.91;52.21
71839;SHT31;59687;37.520;15.068;2022-09-13T15:57:54;26.79;50.75
71839;SHT31;59687;37.520;15.068;2022-09-13T16:00:24;26.84;49.87
71839;SHT31;59687;37.520;15.068;2022-09-13T16:02:52;27.14;49.54
71839;SHT31;59687;37.520;15.068;2022-09-13T16:05:20;27.25;48.77
71839;SHT31;59687;37.520;15.068;2022-09-13T16:07:47;27.00;52.42
71839;SHT31;59687;37.520;15.068;2022-09-13T16:10:21;26.90;51.93
71839;SHT31;59687;37.520;15.068;2022-09-13T16:13:00;26.72;53.69
71839;SHT31;59687;37.520;15.068;2022-09-13T16:15:39;26.66;52.44
71839;SHT31;59687;37.520;15.068;2022-09-13T16:18:06;26.62;50.86
71839;SHT31;59687;37.520;15.068;2022-09-13T16:20:33;26.57;50.72
71839;SHT31;59687;37.520;15.068;2022-09-13T16:23:00;26.69;51.62
71839;SHT31;59687;37.520;15.068;2022-09-13T16:25:27;26.90;51.20
71839;SHT31;59687;37.520;15.068;2022-09-13T16:27:54;27.03;49.86
71839;SHT31;59687;37.520;15.068;2022-09-13T16:30:22;27.10;49.78
71839;SHT31;59687;37.520;15.068;2022-09-13T16:32:48;27.01;50.39
71839;SHT31;59687;37.520;15.068;2022-09-13T16:35:16;27.06;49.75
71839;SHT31;59687;37.520;15.068;2022-09-13T16:37:43;26.96;49.82
71839;SHT31;59687;37.520;15.068;2022-09-13T16:40:12;26.90;50.82
71839;SHT31;59687;37.520;15.068;2022-09-13T16:42:39;26.84;51.80
71839;SHT31;59687;37.520;15.068;2022-09-13T16:45:06;26.75;52.18
71839;SHT31;59687;37.520;15.068;2022-09-13T16:47:33;26.84;51.63
71839;SHT31;59687;37.520;15.068;2022-09-13T16:50:01;26.87;50.70
71839;SHT31;59687;37.520;15.068;2022-09-13T16:52:28;26.66;50.32
71839;SHT31;59687;37.520;15.068;2022-09-13T16:54:55;26.70;51.10
71839;SHT31;59687;37.520;15.068;2022-09-13T16:57:22;26.72;50.95
71839;SHT31;59687;37.520;15.068;2022-09-13T16:59:52;26.64;49.77
71839;SHT31;59687;37.520;15.068;2022-09-13T17:02:20;26.60;50.19
71839;SHT31;59687;37.520;15.068;2022-09-13T17:04:48;26.39;51.01
71839;SHT31;59687;37.520;15.068;2022-09-13T17:07:18;26.49;51.57
71839;SHT31;59687;37.520;15.068;2022-09-13T17:09:45;26.35;51.79
71839;SHT31;59687;37.520;15.068;2022-09-13T17:12:13;26.45;51.55
71839;SHT31;59687;37.520;15.068;2022-09-13T17:14:41;26.48;51.77
71839;SHT31;59687;37.520;15.068;2022-09-13T17:17:08;26.42;52.21
71839;SHT31;59687;37.520;15.068;2022-09-13T17:19:35;26.25;52.38
71839;SHT31;59687;37.520;15.068;2022-09-13T17:22:03;26.17;52.25
71839;SHT31;59687;37.520;15.068;2022-09-13T17:24:34;26.22;52.13
71839;SHT31;59687;37.520;15.068;2022-09-13T17:27:03;26.46;51.23
71839;SHT31;59687;37.520;15.068;2022-09-13T17:29:33;26.68;50.34
71839;SHT31;59687;37.520;15.068;2022-09-13T17:32:03;26.69;50.38
71839;SHT31;59687;37.520;15.068;2022-09-13T17:34:31;26.73;50.45
71839;SHT31;59687;37.520;15.068;2022-09-13T17:37:00;26.75;49.99
71839;SHT31;59687;37.520;15.068;2022-09-13T17:39:29;26.79;49.53
71839;SHT31;59687;37.520;15.068;2022-09-13T17:41:56;26.70;49.93
71839;SHT31;59687;37.520;15.068;2022-09-13T17:44:24;26.64;49.56
71839;SHT31;59687;37.520;15.068;2022-09-13T17:46:53;26.57;49.78
71839;SHT31;59687;37.520;15.068;2022-09-13T17:49:21;26.69;49.75
71839;SHT31;59687;37.520;15.068;2022-09-13T17:51:48;26.60;49.94
71839;SHT31;59687;37.520;15.068;2022-09-13T17:54:15;26.66;50.00
71839;SHT31;59687;37.520;15.068;2022-09-13T17:56:43;26.62;50.36
71839;SHT31;59687;37.520;15.068;2022-09-13T17:59:16;26.66;50.63
71839;SHT31;59687;37.520;15.068;2022-09-13T18:01:49;26.60;50.89
71839;SHT31;59687;37.520;15.068;2022-09-13T18:04:18;26.57;50.96
71839;SHT31;59687;37.520;15.068;2022-09-13T18:06:46;26.66;50.50
71839;SHT31;59687;37.520;15.068;2022-09-13T18:09:15;26.60;50.90
71839;SHT31;59687;37.520;15.068;2022-09-13T18:11:44;26.45;51.25
71839;SHT31;59687;37.520;15.068;2022-09-13T18:14:13;26.41;51.40
71839;SHT31;59687;37.520;15.068;2022-09-13T18:16:40;26.29;51.61
71839;SHT31;59687;37.520;15.068;2022-09-13T18:19:10;26.35;51.87
71839;SHT31;59687;37.520;15.068;2022-09-13T18:21:37;26.44;51.64
71839;SHT31;59687;37.520;15.068;2022-09-13T18:24:05;26.42;51.74
71839;SHT31;59687;37.520;15.068;2022-09-13T18:26:33;26.20;52.41
71839;SHT31;59687;37.520;15.068;2022-09-13T18:29:03;26.25;52.56
71839;SHT31;59687;37.520;15.068;2022-09-13T18:31:32;26.38;52.21
71839;SHT31;59687;37.520;15.068;2022-09-13T18:34:01;26.20;52.99
71839;SHT31;59687;37.520;15.068;2022-09-13T18:36:29;26.13;53.39
71839;SHT31;59687;37.520;15.068;2022-09-13T18:38:59;26.11;53.71
71839;SHT31;59687;37.520;15.068;2022-09-13T18:41:35;26.04;53.93
71839;SHT31;59687;37.520;15.068;2022-09-13T18:44:03;26.17;53.82
71839;SHT31;59687;37.520;15.068;2022-09-13T18:46:33;25.98;54.13
71839;SHT31;59687;37.520;15.068;2022-09-13T18:49:01;26.08;54.00